METAR Reports

 

KMRH - Beaufort, North Carolina, USA
Distance from station: E 8mi, 12km
Updated: Thu, 21-Sep-2017 12:58pm EDT
Mostly Cloudy
Mostly Cloudy
 Wind from SSE
Wind: SSE 8 mph , 13 km/h
Temperature: 82°F , 28°C
Heat Index: 87°F , 31°C
Dew Point: 73°F , 23°C
Humidity: 74%
Barometer: 30.02 inHg , 1016.6 hPa
Clouds: Mostly Cloudy
Visibility: 10 miles , 16 km
Cloud details: Mostly Cloudy 3200 ft
2017/09/21 16:58 KMRH 211658Z AUTO 16007KT 10SM BKN032 28/23 A3002 RMK AO2 SLP165 T02830228 TSNO
KEWN - New Bern, North Carolina, USA
Distance from station: NW 33mi, 40km
Updated: Thu, 21-Sep-2017 12:54pm EDT
Clear
Clear
 Wind from ENE
Wind: ENE 5 mph , 7 km/h
Temperature: 88°F , 31°C
Heat Index: 93°F , 34°C
Dew Point: 70°F , 21°C
Humidity: 55%
Barometer: 30.03 inHg , 1016.9 hPa
Clouds: Clear
Visibility: 9 miles , 14 km
2017/09/21 16:54 KEWN 211654Z 06004KT 9SM CLR 31/21 A3003 RMK AO2 LTG DSNT SE SLP167 T03060206
 
KPGV - Greenville, North Carolina, USA
Updated: Thu, 21-Sep-2017 1:15pm EDT
Clear
Clear
 Wind from N
Wind: N 5 mph , 7 km/h
Temperature: 86°F , 30°C
Heat Index: 92°F , 33°C
Dew Point: 72°F , 22°C
Humidity: 62%
Barometer: 30.04 inHg , 1017.3 hPa
Clouds: Clear
Visibility: 10 miles , 16 km
2017/09/21 17:15 KPGV 211715Z AUTO 01004KT 10SM CLR 30/22 A3004 RMK AO2
KOAJ - Richlands, North Carolina, USA
Updated: Thu, 21-Sep-2017 12:56pm EDT
Clear
Clear
 Wind from NE
Wind: NE 3 mph , 6 km/h
Temperature: 88°F , 31°C
Heat Index: 95°F , 35°C
Dew Point: 72°F , 22°C
Humidity: 59%
Barometer: 30.02 inHg , 1016.6 hPa
Clouds: Clear
Visibility: 10 miles , 16 km
2017/09/21 16:56 KOAJ 211656Z AUTO 04003KT 10SM CLR 31/22 A3002 RMK AO2 SLP170 T03110217
 
KISO - Kinston, North Carolina, USA
Distance from station: NW 73mi, 87km
Updated: Thu, 21-Sep-2017 12:56pm EDT
Partly Cloudy
Partly Cloudy
 Wind from E
Wind: E 3 mph , 6 km/h
Temperature: 88°F , 31°C
Heat Index: 92°F , 33°C
Dew Point: 68°F , 20°C
Humidity: 52%
Barometer: 30.03 inHg , 1016.9 hPa
Clouds: Partly Cloudy
Visibility: 10 miles , 16 km
Cloud details: Partly Cloudy 4000 ft
Partly Cloudy 12000 ft
2017/09/21 16:56 KISO 211656Z 08003KT 10SM SCT040 SCT120 31/20 A3003 RMK AO2
KHSE - Buxton, North Carolina, USA
Distance from station: NE 89mi, 102km
Updated: Thu, 21-Sep-2017 12:51pm EDT
Clear
Clear
 Wind from varies
Wind: varies 5 mph , 7 km/h
Temperature: 84°F , 29°C
Heat Index: 88°F , 31°C
Dew Point: 70°F , 21°C
Humidity: 62%
Barometer: 30.02 inHg , 1016.6 hPa
Clouds: Clear
Visibility: 10 miles , 16 km
2017/09/21 16:51 KHSE 211651Z AUTO VRB04KT 10SM CLR 29/21 A3002 RMK AO2 SLP165 T02940211 TSNO
 
KNCA - Jacksonville, North Carolina, USA
Distance from station: SW 48mi, 60km
Updated: Thu, 21-Sep-2017 12:56pm EDT
Clear
Clear
 Wind from calm
Wind: Calm
Temperature: 88°F , 31°C
Heat Index: 93°F , 34°C
Dew Point: 70°F , 21°C
Humidity: 55%
Barometer: 30.01 inHg , 1016.3 hPa
Clouds: Clear
Visibility: 10 miles , 16 km
2017/09/21 16:56 KNCA 211656Z 00000KT 10SM CLR 31/21 A3001 RMK AO2 SLP166 T03060211
KNKT - Cherry Point, North Carolina, USA
Distance from station: NW 9mi, 12km
Updated: Thu, 21-Sep-2017 1:17pm EDT
Nearby thunderstorm, Mostly cloudy
Nearby thunderstorm, Mostly cloudy
 Wind from NE
Wind: NE 16 mph , 26 km/h, Gust: 24 mph , 39 km/h
Temperature: 88°F , 31°C
Heat Index: 95°F , 35°C
Dew Point: 72°F , 22°C
Humidity: 59%
Barometer: 30.02 inHg , 1016.6 hPa
Summary: Nearby Thunderstorm
Clouds: Mostly Cloudy
Visibility: 10 miles , 16 km
Cloud details: Mostly Cloudy 5500 ft
2017/09/21 17:17 KNKT 211717Z 05014G21KT 10SM VCTS BKN055 31/22 A3002 RMK AO2 CB NE MOV SE T03060217
 
KOCW - Washington, North Carolina, USA
Distance from station: N 73mi, 87km
Updated: Thu, 21-Sep-2017 1:25pm EDT
Partly Cloudy
Partly Cloudy
 Wind from NE
Wind: NE 6 mph , 9 km/h
Temperature: 88°F , 31°C
Heat Index: 93°F , 34°C
Dew Point: 70°F , 21°C
Humidity: 55%
Barometer: 30.02 inHg , 1016.6 hPa
Clouds: Partly Cloudy
Visibility: 10 miles , 16 km
Cloud details: Partly Cloudy 4100 ft
2017/09/21 17:25 KOCW 211725Z AUTO 04005KT 10SM SCT041 31/21 A3002 RMK AO2 T03060205
KDPL - Kenansville, North Carolina, USA
Distance from station: W 86mi, 98km
Updated: Thu, 21-Sep-2017 1:05pm EDT
Clear
Clear
 Wind from N
Wind: N 3 mph , 6 km/h
Temperature: 86°F , 30°C
Heat Index: 91°F , 33°C
Dew Point: 70°F , 21°C
Humidity: 59%
Barometer: 30.03 inHg , 1016.9 hPa
Clouds: Clear
Visibility: 10 miles , 16 km
2017/09/21 17:05 KDPL 211705Z AUTO 35003KT 10SM CLR 30/21 A3003 RMK AO2
 
KMQI - Manteo, North Carolina, USA
Updated: Thu, 21-Sep-2017 1:05pm EDT
Clear
Clear
 Wind from NNE
Wind: NNE 8 mph , 13 km/h
Temperature: 81°F , 27°C
Heat Index: 85°F , 29°C
Dew Point: 70°F , 21°C
Humidity: 70%
Barometer: 30.03 inHg , 1016.9 hPa
Clouds: Clear
Visibility: 10 miles , 16 km
2017/09/21 17:05 KMQI 211705Z AUTO 03007KT 10SM CLR 27/21 A3003 RMK AO2 T02740205
KFFA - Kill Devil Hills, North Carolina, USA
Updated: Thu, 21-Sep-2017 1:00pm EDT
Clear
Clear
 Wind from calm
Wind: Calm
Temperature: 79°F , 26°C
Dew Point: 66°F , 19°C
Humidity: 65%
Barometer: 30.01 inHg , 1016.3 hPa
Clouds: Clear
Visibility: 10 miles , 16 km
2017/09/21 17:00 KFFA 211700Z AUTO 00000KT 10SM CLR 26/19 A3001 RMK AO2 T02570193
 
KILM - Wilmington, North Carolina, USA
Updated: Thu, 21-Sep-2017 12:53pm EDT
Clear
Clear
 Wind from varies
Wind: varies 3 mph , 6 km/h
Temperature: 90°F , 32°C
Heat Index: 96°F , 36°C
Dew Point: 70°F , 21°C
Humidity: 52%
Barometer: 30.02 inHg , 1016.6 hPa
Clouds: Clear
Visibility: 10 miles , 16 km
2017/09/21 16:53 KILM 211653Z VRB03KT 10SM CLR 32/21 A3002 RMK AO2 SLP164 T03170206
KRDU - Raleigh, North Carolina, USA
Updated: Thu, 21-Sep-2017 12:51pm EDT
Mostly Cloudy
Mostly Cloudy
 Wind from NE
Wind: NE 8 mph , 13 km/h
Temperature: 84°F , 29°C
Heat Index: 85°F , 29°C
Dew Point: 64°F , 18°C
Humidity: 51%
Barometer: 30.05 inHg , 1017.6 hPa
Clouds: Mostly Cloudy
Visibility: 10 miles , 16 km
Cloud details: Few Clouds 2200 ft
Mostly Cloudy 13000 ft
2017/09/21 16:51 KRDU 211651Z 04007KT 10SM FEW022 BKN130 29/18 A3005 RMK AO2 SLP172 TCU DSNT S-SW T02940183